sensor_id;sensor_type;location;lat;lon;timestamp;P1;durP1;ratioP1;P2;durP2;ratioP2
62903;SDS011;49000;50.698;13.322;2023-05-07T00:00:10;15.83;;;12.17;;
62903;SDS011;49000;50.698;13.322;2023-05-07T00:02:36;16.47;;;12.30;;
62903;SDS011;49000;50.698;13.322;2023-05-07T00:05:02;18.93;;;13.97;;
62903;SDS011;49000;50.698;13.322;2023-05-07T00:07:28;17.50;;;12.00;;
62903;SDS011;49000;50.698;13.322;2023-05-07T00:09:54;14.53;;;10.83;;
62903;SDS011;49000;50.698;13.322;2023-05-07T00:12:20;15.70;;;11.53;;
62903;SDS011;49000;50.698;13.322;2023-05-07T00:14:45;16.30;;;11.90;;
62903;SDS011;49000;50.698;13.322;2023-05-07T00:17:11;15.23;;;10.57;;
62903;SDS011;49000;50.698;13.322;2023-05-07T00:19:36;16.60;;;11.77;;
62903;SDS011;49000;50.698;13.322;2023-05-07T00:22:02;19.73;;;11.50;;
62903;SDS011;49000;50.698;13.322;2023-05-07T00:24:27;15.60;;;11.33;;
62903;SDS011;49000;50.698;13.322;2023-05-07T00:26:52;15.33;;;11.60;;
62903;SDS011;49000;50.698;13.322;2023-05-07T00:29:18;20.90;;;13.50;;
62903;SDS011;49000;50.698;13.322;2023-05-07T00:31:44;16.53;;;12.27;;
62903;SDS011;49000;50.698;13.322;2023-05-07T00:34:09;17.40;;;13.03;;
62903;SDS011;49000;50.698;13.322;2023-05-07T00:36:35;16.13;;;12.30;;
62903;SDS011;49000;50.698;13.322;2023-05-07T00:39:00;18.73;;;13.30;;
62903;SDS011;49000;50.698;13.322;2023-05-07T00:41:28;15.77;;;11.50;;
62903;SDS011;49000;50.698;13.322;2023-05-07T00:43:55;16.30;;;12.03;;
62903;SDS011;49000;50.698;13.322;2023-05-07T00:46:21;18.53;;;12.47;;
62903;SDS011;49000;50.698;13.322;2023-05-07T00:48:49;18.43;;;12.17;;
62903;SDS011;49000;50.698;13.322;2023-05-07T00:51:15;18.93;;;12.20;;
62903;SDS011;49000;50.698;13.322;2023-05-07T00:53:42;16.63;;;11.43;;
62903;SDS011;49000;50.698;13.322;2023-05-07T00:56:08;21.50;;;14.43;;
62903;SDS011;49000;50.698;13.322;2023-05-07T00:58:33;17.67;;;12.70;;
62903;SDS011;49000;50.698;13.322;2023-05-07T01:00:59;17.37;;;11.87;;
62903;SDS011;49000;50.698;13.322;2023-05-07T01:03:25;14.77;;;10.60;;
62903;SDS011;49000;50.698;13.322;2023-05-07T01:05:51;17.33;;;11.30;;
62903;SDS011;49000;50.698;13.322;2023-05-07T01:08:18;17.43;;;10.87;;
62903;SDS011;49000;50.698;13.322;2023-05-07T01:10:45;14.20;;;9.90;;
62903;SDS011;49000;50.698;13.322;2023-05-07T01:13:11;17.23;;;11.53;;
62903;SDS011;49000;50.698;13.322;2023-05-07T01:15:38;15.13;;;10.40;;
62903;SDS011;49000;50.698;13.322;2023-05-07T01:18:05;14.63;;;10.80;;
62903;SDS011;49000;50.698;13.322;2023-05-07T01:20:31;13.90;;;9.90;;
62903;SDS011;49000;50.698;13.322;2023-05-07T01:22:57;13.93;;;10.10;;
62903;SDS011;49000;50.698;13.322;2023-05-07T01:25:25;12.07;;;8.37;;
62903;SDS011;49000;50.698;13.322;2023-05-07T01:27:50;15.43;;;10.57;;
62903;SDS011;49000;50.698;13.322;2023-05-07T01:30:16;13.43;;;9.60;;
62903;SDS011;49000;50.698;13.322;2023-05-07T01:32:45;16.23;;;10.23;;
62903;SDS011;49000;50.698;13.322;2023-05-07T01:35:18;13.10;;;9.43;;
62903;SDS011;49000;50.698;13.322;2023-05-07T01:37:46;13.10;;;9.27;;
62903;SDS011;49000;50.698;13.322;2023-05-07T01:40:12;13.33;;;8.67;;
62903;SDS011;49000;50.698;13.322;2023-05-07T01:42:38;14.73;;;10.50;;
62903;SDS011;49000;50.698;13.322;2023-05-07T01:45:04;14.80;;;10.50;;
62903;SDS011;49000;50.698;13.322;2023-05-07T01:47:30;13.57;;;9.40;;
62903;SDS011;49000;50.698;13.322;2023-05-07T01:49:56;13.93;;;9.90;;
62903;SDS011;49000;50.698;13.322;2023-05-07T01:52:22;13.13;;;9.67;;
62903;SDS011;49000;50.698;13.322;2023-05-07T01:54:47;13.03;;;8.90;;
62903;SDS011;49000;50.698;13.322;2023-05-07T01:57:13;14.20;;;9.77;;
62903;SDS011;49000;50.698;13.322;2023-05-07T01:59:38;15.37;;;10.17;;
62903;SDS011;49000;50.698;13.322;2023-05-07T02:02:04;14.10;;;9.63;;
62903;SDS011;49000;50.698;13.322;2023-05-07T02:04:29;14.40;;;10.07;;
62903;SDS011;49000;50.698;13.322;2023-05-07T02:06:55;14.30;;;10.27;;
62903;SDS011;49000;50.698;13.322;2023-05-07T02:09:20;14.10;;;10.23;;
62903;SDS011;49000;50.698;13.322;2023-05-07T02:11:47;16.97;;;10.80;;
62903;SDS011;49000;50.698;13.322;2023-05-07T02:14:12;16.80;;;11.70;;
62903;SDS011;49000;50.698;13.322;2023-05-07T02:16:37;19.40;;;12.40;;
62903;SDS011;49000;50.698;13.322;2023-05-07T02:19:03;17.13;;;11.43;;
62903;SDS011;49000;50.698;13.322;2023-05-07T02:21:28;16.20;;;11.50;;
62903;SDS011;49000;50.698;13.322;2023-05-07T02:23:54;18.30;;;12.80;;
62903;SDS011;49000;50.698;13.322;2023-05-07T02:26:19;17.13;;;11.73;;
62903;SDS011;49000;50.698;13.322;2023-05-07T02:28:46;16.90;;;11.00;;
62903;SDS011;49000;50.698;13.322;2023-05-07T02:31:12;13.60;;;10.40;;
62903;SDS011;49000;50.698;13.322;2023-05-07T02:33:37;17.10;;;10.97;;
62903;SDS011;49000;50.698;13.322;2023-05-07T02:36:06;15.53;;;10.20;;
62903;SDS011;49000;50.698;13.322;2023-05-07T02:38:35;15.47;;;10.20;;
62903;SDS011;49000;50.698;13.322;2023-05-07T02:41:01;15.47;;;10.17;;
62903;SDS011;49000;50.698;13.322;2023-05-07T02:43:27;15.73;;;10.50;;
62903;SDS011;49000;50.698;13.322;2023-05-07T02:46:06;13.23;;;9.37;;
62903;SDS011;49000;50.698;13.322;2023-05-07T02:48:32;16.00;;;9.97;;
62903;SDS011;49000;50.698;13.322;2023-05-07T02:50:58;14.00;;;9.50;;
62903;SDS011;49000;50.698;13.322;2023-05-07T02:53:25;15.10;;;10.30;;
62903;SDS011;49000;50.698;13.322;2023-05-07T02:55:54;12.87;;;8.80;;
62903;SDS011;49000;50.698;13.322;2023-05-07T02:58:21;12.70;;;9.77;;
62903;SDS011;49000;50.698;13.322;2023-05-07T03:00:46;14.30;;;9.80;;
62903;SDS011;49000;50.698;13.322;2023-05-07T03:03:12;14.23;;;9.63;;
62903;SDS011;49000;50.698;13.322;2023-05-07T03:05:38;12.20;;;8.57;;
62903;SDS011;49000;50.698;13.322;2023-05-07T03:08:03;13.40;;;9.10;;
62903;SDS011;49000;50.698;13.322;2023-05-07T03:10:29;14.43;;;9.83;;
62903;SDS011;49000;50.698;13.322;2023-05-07T03:12:55;13.67;;;9.53;;
62903;SDS011;49000;50.698;13.322;2023-05-07T03:15:21;12.83;;;9.37;;
62903;SDS011;49000;50.698;13.322;2023-05-07T03:17:47;14.43;;;10.07;;
62903;SDS011;49000;50.698;13.322;2023-05-07T03:20:12;14.40;;;9.57;;
62903;SDS011;49000;50.698;13.322;2023-05-07T03:22:38;13.57;;;9.47;;
62903;SDS011;49000;50.698;13.322;2023-05-07T03:25:05;14.03;;;9.93;;
62903;SDS011;49000;50.698;13.322;2023-05-07T03:27:31;12.97;;;10.17;;
62903;SDS011;49000;50.698;13.322;2023-05-07T03:29:56;12.10;;;9.07;;
62903;SDS011;49000;50.698;13.322;2023-05-07T03:32:22;12.37;;;8.53;;
62903;SDS011;49000;50.698;13.322;2023-05-07T03:34:47;14.13;;;8.77;;
62903;SDS011;49000;50.698;13.322;2023-05-07T03:37:13;15.23;;;10.67;;
62903;SDS011;49000;50.698;13.322;2023-05-07T03:39:38;14.33;;;10.50;;
62903;SDS011;49000;50.698;13.322;2023-05-07T03:42:04;13.20;;;8.87;;
62903;SDS011;49000;50.698;13.322;2023-05-07T03:44:29;11.90;;;8.60;;
62903;SDS011;49000;50.698;13.322;2023-05-07T03:46:55;11.23;;;8.03;;
62903;SDS011;49000;50.698;13.322;2023-05-07T03:49:20;9.03;;;7.17;;
62903;SDS011;49000;50.698;13.322;2023-05-07T03:51:46;11.00;;;7.90;;
62903;SDS011;49000;50.698;13.322;2023-05-07T03:54:11;11.13;;;7.70;;
62903;SDS011;49000;50.698;13.322;2023-05-07T03:56:37;10.37;;;7.47;;
62903;SDS011;49000;50.698;13.322;2023-05-07T03:59:02;11.40;;;8.27;;
62903;SDS011;49000;50.698;13.322;2023-05-07T04:01:28;11.37;;;8.40;;
62903;SDS011;49000;50.698;13.322;2023-05-07T04:03:53;10.87;;;8.20;;
62903;SDS011;49000;50.698;13.322;2023-05-07T04:06:19;11.23;;;7.97;;
62903;SDS011;49000;50.698;13.322;2023-05-07T04:08:44;11.87;;;8.20;;
62903;SDS011;49000;50.698;13.322;2023-05-07T04:11:10;11.57;;;8.20;;
62903;SDS011;49000;50.698;13.322;2023-05-07T04:13:35;13.30;;;8.93;;
62903;SDS011;49000;50.698;13.322;2023-05-07T04:16:01;9.93;;;6.80;;
62903;SDS011;49000;50.698;13.322;2023-05-07T04:18:28;10.50;;;7.30;;
62903;SDS011;49000;50.698;13.322;2023-05-07T04:20:53;10.57;;;7.20;;
62903;SDS011;49000;50.698;13.322;2023-05-07T04:23:19;11.17;;;6.90;;
62903;SDS011;49000;50.698;13.322;2023-05-07T04:25:44;11.80;;;7.90;;
62903;SDS011;49000;50.698;13.322;2023-05-07T04:28:10;11.30;;;7.80;;
62903;SDS011;49000;50.698;13.322;2023-05-07T04:30:36;12.03;;;7.80;;
62903;SDS011;49000;50.698;13.322;2023-05-07T04:33:02;11.60;;;8.07;;
62903;SDS011;49000;50.698;13.322;2023-05-07T04:35:27;11.10;;;6.87;;
62903;SDS011;49000;50.698;13.322;2023-05-07T04:37:53;10.30;;;6.93;;
62903;SDS011;49000;50.698;13.322;2023-05-07T04:40:18;11.70;;;7.57;;
62903;SDS011;49000;50.698;13.322;2023-05-07T04:42:44;10.83;;;7.10;;
62903;SDS011;49000;50.698;13.322;2023-05-07T04:45:09;8.93;;;6.77;;
62903;SDS011;49000;50.698;13.322;2023-05-07T04:47:35;8.93;;;6.50;;
62903;SDS011;49000;50.698;13.322;2023-05-07T04:50:01;11.23;;;7.53;;
62903;SDS011;49000;50.698;13.322;2023-05-07T04:52:26;8.87;;;6.60;;
62903;SDS011;49000;50.698;13.322;2023-05-07T04:54:52;10.93;;;7.70;;
62903;SDS011;49000;50.698;13.322;2023-05-07T04:57:18;8.90;;;5.87;;
62903;SDS011;49000;50.698;13.322;2023-05-07T04:59:43;8.97;;;6.27;;
62903;SDS011;49000;50.698;13.322;2023-05-07T05:02:12;10.33;;;6.73;;
62903;SDS011;49000;50.698;13.322;2023-05-07T05:04:37;10.57;;;7.07;;
62903;SDS011;49000;50.698;13.322;2023-05-07T05:07:03;8.83;;;6.23;;
62903;SDS011;49000;50.698;13.322;2023-05-07T05:09:29;8.70;;;6.00;;
62903;SDS011;49000;50.698;13.322;2023-05-07T05:11:54;10.10;;;6.47;;
62903;SDS011;49000;50.698;13.322;2023-05-07T05:14:20;8.97;;;5.80;;
62903;SDS011;49000;50.698;13.322;2023-05-07T05:16:45;8.20;;;5.63;;
62903;SDS011;49000;50.698;13.322;2023-05-07T05:19:11;8.03;;;5.70;;
62903;SDS011;49000;50.698;13.322;2023-05-07T05:21:36;7.87;;;5.77;;
62903;SDS011;49000;50.698;13.322;2023-05-07T05:24:02;8.07;;;5.63;;
62903;SDS011;49000;50.698;13.322;2023-05-07T05:26:27;7.53;;;5.63;;
62903;SDS011;49000;50.698;13.322;2023-05-07T05:28:53;7.97;;;5.83;;
62903;SDS011;49000;50.698;13.322;2023-05-07T05:31:18;6.93;;;5.30;;
62903;SDS011;49000;50.698;13.322;2023-05-07T05:33:44;8.77;;;5.97;;
62903;SDS011;49000;50.698;13.322;2023-05-07T05:36:10;8.80;;;5.90;;
62903;SDS011;49000;50.698;13.322;2023-05-07T05:38:35;7.80;;;5.43;;
62903;SDS011;49000;50.698;13.322;2023-05-07T05:41:01;8.00;;;5.83;;
62903;SDS011;49000;50.698;13.322;2023-05-07T05:43:27;8.03;;;5.80;;
62903;SDS011;49000;50.698;13.322;2023-05-07T05:45:52;6.63;;;4.70;;
62903;SDS011;49000;50.698;13.322;2023-05-07T05:48:18;6.67;;;4.90;;
62903;SDS011;49000;50.698;13.322;2023-05-07T05:50:43;6.30;;;4.33;;
62903;SDS011;49000;50.698;13.322;2023-05-07T05:53:09;6.17;;;4.63;;
62903;SDS011;49000;50.698;13.322;2023-05-07T05:55:34;6.10;;;4.83;;
62903;SDS011;49000;50.698;13.322;2023-05-07T05:58:00;7.13;;;5.13;;
62903;SDS011;49000;50.698;13.322;2023-05-07T06:00:26;6.70;;;4.93;;
62903;SDS011;49000;50.698;13.322;2023-05-07T06:02:52;7.20;;;5.60;;
62903;SDS011;49000;50.698;13.322;2023-05-07T06:05:17;7.23;;;5.40;;
62903;SDS011;49000;50.698;13.322;2023-05-07T06:07:43;6.43;;;5.40;;
62903;SDS011;49000;50.698;13.322;2023-05-07T06:10:08;6.63;;;5.20;;
62903;SDS011;49000;50.698;13.322;2023-05-07T06:12:34;7.07;;;5.20;;
62903;SDS011;49000;50.698;13.322;2023-05-07T06:15:00;9.00;;;5.40;;
62903;SDS011;49000;50.698;13.322;2023-05-07T06:17:25;7.13;;;5.50;;
62903;SDS011;49000;50.698;13.322;2023-05-07T06:19:51;20.77;;;8.37;;
62903;SDS011;49000;50.698;13.322;2023-05-07T06:22:17;6.50;;;5.07;;
62903;SDS011;49000;50.698;13.322;2023-05-07T06:24:42;6.53;;;4.87;;
62903;SDS011;49000;50.698;13.322;2023-05-07T06:27:08;6.40;;;4.90;;
62903;SDS011;49000;50.698;13.322;2023-05-07T06:29:33;5.60;;;4.07;;
62903;SDS011;49000;50.698;13.322;2023-05-07T06:32:08;6.80;;;4.53;;
62903;SDS011;49000;50.698;13.322;2023-05-07T06:34:35;5.37;;;3.83;;
62903;SDS011;49000;50.698;13.322;2023-05-07T06:37:01;5.57;;;4.37;;
62903;SDS011;49000;50.698;13.322;2023-05-07T06:39:26;6.47;;;4.30;;
62903;SDS011;49000;50.698;13.322;2023-05-07T06:41:52;5.77;;;4.47;;
62903;SDS011;49000;50.698;13.322;2023-05-07T06:44:17;5.67;;;4.20;;
62903;SDS011;49000;50.698;13.322;2023-05-07T06:46:43;6.50;;;4.47;;
62903;SDS011;49000;50.698;13.322;2023-05-07T06:49:08;5.70;;;4.37;;
62903;SDS011;49000;50.698;13.322;2023-05-07T06:51:34;5.77;;;4.57;;
62903;SDS011;49000;50.698;13.322;2023-05-07T06:53:59;5.87;;;4.47;;
62903;SDS011;49000;50.698;13.322;2023-05-07T06:56:25;5.63;;;4.40;;
62903;SDS011;49000;50.698;13.322;2023-05-07T06:58:50;5.93;;;4.97;;
62903;SDS011;49000;50.698;13.322;2023-05-07T07:01:16;8.70;;;5.47;;
62903;SDS011;49000;50.698;13.322;2023-05-07T07:03:41;7.77;;;5.43;;
62903;SDS011;49000;50.698;13.322;2023-05-07T07:06:07;10.17;;;6.97;;
62903;SDS011;49000;50.698;13.322;2023-05-07T07:08:32;8.83;;;6.73;;
62903;SDS011;49000;50.698;13.322;2023-05-07T07:10:59;9.30;;;7.40;;
62903;SDS011;49000;50.698;13.322;2023-05-07T07:13:24;8.20;;;6.73;;
62903;SDS011;49000;50.698;13.322;2023-05-07T07:15:51;9.40;;;6.20;;
62903;SDS011;49000;50.698;13.322;2023-05-07T07:18:17;6.70;;;5.20;;
62903;SDS011;49000;50.698;13.322;2023-05-07T07:20:43;8.63;;;6.37;;
62903;SDS011;49000;50.698;13.322;2023-05-07T07:23:09;9.13;;;6.93;;
62903;SDS011;49000;50.698;13.322;2023-05-07T07:25:34;9.77;;;6.80;;
62903;SDS011;49000;50.698;13.322;2023-05-07T07:28:00;8.23;;;6.40;;
62903;SDS011;49000;50.698;13.322;2023-05-07T07:30:26;8.23;;;6.90;;
62903;SDS011;49000;50.698;13.322;2023-05-07T07:32:51;7.93;;;5.70;;
62903;SDS011;49000;50.698;13.322;2023-05-07T07:35:17;8.67;;;6.37;;
62903;SDS011;49000;50.698;13.322;2023-05-07T07:37:43;8.23;;;6.53;;
62903;SDS011;49000;50.698;13.322;2023-05-07T07:40:08;9.53;;;7.30;;
62903;SDS011;49000;50.698;13.322;2023-05-07T07:42:34;9.10;;;6.47;;
62903;SDS011;49000;50.698;13.322;2023-05-07T07:45:00;9.13;;;6.93;;
62903;SDS011;49000;50.698;13.322;2023-05-07T07:47:25;7.67;;;6.50;;
62903;SDS011;49000;50.698;13.322;2023-05-07T07:49:51;7.70;;;6.10;;
62903;SDS011;49000;50.698;13.322;2023-05-07T07:52:16;8.43;;;6.63;;
62903;SDS011;49000;50.698;13.322;2023-05-07T07:54:42;8.27;;;6.20;;
62903;SDS011;49000;50.698;13.322;2023-05-07T07:57:09;9.47;;;5.83;;
62903;SDS011;49000;50.698;13.322;2023-05-07T07:59:34;7.57;;;5.97;;
62903;SDS011;49000;50.698;13.322;2023-05-07T08:02:00;8.50;;;6.00;;
62903;SDS011;49000;50.698;13.322;2023-05-07T08:04:25;8.83;;;6.43;;
62903;SDS011;49000;50.698;13.322;2023-05-07T08:06:50;7.83;;;5.40;;
62903;SDS011;49000;50.698;13.322;2023-05-07T08:09:16;6.17;;;5.40;;
62903;SDS011;49000;50.698;13.322;2023-05-07T08:11:41;7.80;;;5.67;;
62903;SDS011;49000;50.698;13.322;2023-05-07T08:14:07;7.30;;;5.27;;
62903;SDS011;49000;50.698;13.322;2023-05-07T08:16:32;6.53;;;4.80;;
62903;SDS011;49000;50.698;13.322;2023-05-07T08:18:58;6.17;;;5.10;;
62903;SDS011;49000;50.698;13.322;2023-05-07T08:21:23;5.77;;;4.57;;
62903;SDS011;49000;50.698;13.322;2023-05-07T08:23:49;5.70;;;4.50;;
62903;SDS011;49000;50.698;13.322;2023-05-07T08:26:14;4.97;;;4.40;;
62903;SDS011;49000;50.698;13.322;2023-05-07T08:28:40;5.20;;;4.20;;
62903;SDS011;49000;50.698;13.322;2023-05-07T08:31:05;6.27;;;4.60;;
62903;SDS011;49000;50.698;13.322;2023-05-07T08:33:31;5.63;;;4.37;;
62903;SDS011;49000;50.698;13.322;2023-05-07T08:35:56;5.20;;;4.13;;
62903;SDS011;49000;50.698;13.322;2023-05-07T08:38:22;4.73;;;3.80;;
62903;SDS011;49000;50.698;13.322;2023-05-07T08:40:47;5.33;;;3.90;;
62903;SDS011;49000;50.698;13.322;2023-05-07T08:43:13;4.80;;;3.60;;
62903;SDS011;49000;50.698;13.322;2023-05-07T08:45:40;3.80;;;3.20;;
62903;SDS011;49000;50.698;13.322;2023-05-07T08:48:08;4.17;;;3.73;;
62903;SDS011;49000;50.698;13.322;2023-05-07T08:50:39;4.87;;;3.37;;
62903;SDS011;49000;50.698;13.322;2023-05-07T08:53:04;3.47;;;3.07;;
62903;SDS011;49000;50.698;13.322;2023-05-07T08:55:30;4.27;;;3.87;;
62903;SDS011;49000;50.698;13.322;2023-05-07T08:57:56;4.67;;;3.53;;
62903;SDS011;49000;50.698;13.322;2023-05-07T09:00:21;4.70;;;3.67;;
62903;SDS011;49000;50.698;13.322;2023-05-07T09:02:47;4.30;;;3.50;;
62903;SDS011;49000;50.698;13.322;2023-05-07T09:05:13;3.60;;;3.23;;
62903;SDS011;49000;50.698;13.322;2023-05-07T09:07:39;3.80;;;3.40;;
62903;SDS011;49000;50.698;13.322;2023-05-07T09:10:04;3.53;;;2.83;;
62903;SDS011;49000;50.698;13.322;2023-05-07T09:12:31;3.03;;;2.63;;
62903;SDS011;49000;50.698;13.322;2023-05-07T09:14:56;3.40;;;2.63;;
62903;SDS011;49000;50.698;13.322;2023-05-07T09:17:23;3.30;;;2.80;;
62903;SDS011;49000;50.698;13.322;2023-05-07T09:19:48;2.80;;;2.50;;
62903;SDS011;49000;50.698;13.322;2023-05-07T09:22:14;2.93;;;2.50;;
62903;SDS011;49000;50.698;13.322;2023-05-07T09:24:40;2.67;;;2.43;;
62903;SDS011;49000;50.698;13.322;2023-05-07T09:27:05;3.60;;;2.70;;
62903;SDS011;49000;50.698;13.322;2023-05-07T09:29:33;3.00;;;2.70;;
62903;SDS011;49000;50.698;13.322;2023-05-07T09:32:06;3.10;;;2.80;;
62903;SDS011;49000;50.698;13.322;2023-05-07T09:34:33;2.83;;;2.53;;
62903;SDS011;49000;50.698;13.322;2023-05-07T09:37:03;3.27;;;2.97;;
62903;SDS011;49000;50.698;13.322;2023-05-07T09:39:38;3.63;;;3.00;;
62903;SDS011;49000;50.698;13.322;2023-05-07T09:42:08;3.77;;;2.87;;
62903;SDS011;49000;50.698;13.322;2023-05-07T09:44:34;2.83;;;2.57;;
62903;SDS011;49000;50.698;13.322;2023-05-07T09:47:00;3.00;;;2.67;;
62903;SDS011;49000;50.698;13.322;2023-05-07T09:49:29;2.73;;;2.40;;
62903;SDS011;49000;50.698;13.322;2023-05-07T09:51:58;2.77;;;2.40;;
62903;SDS011;49000;50.698;13.322;2023-05-07T09:54:25;3.03;;;2.77;;
62903;SDS011;49000;50.698;13.322;2023-05-07T09:56:52;3.30;;;3.00;;
62903;SDS011;49000;50.698;13.322;2023-05-07T09:59:18;3.10;;;2.80;;
62903;SDS011;49000;50.698;13.322;2023-05-07T10:01:45;3.20;;;2.90;;
62903;SDS011;49000;50.698;13.322;2023-05-07T10:04:10;2.63;;;2.43;;
62903;SDS011;49000;50.698;13.322;2023-05-07T10:06:36;3.27;;;2.63;;
62903;SDS011;49000;50.698;13.322;2023-05-07T10:09:03;3.10;;;2.80;;
62903;SDS011;49000;50.698;13.322;2023-05-07T10:11:31;2.47;;;2.27;;
62903;SDS011;49000;50.698;13.322;2023-05-07T10:13:58;2.90;;;2.70;;
62903;SDS011;49000;50.698;13.322;2023-05-07T10:16:26;2.87;;;2.67;;
62903;SDS011;49000;50.698;13.322;2023-05-07T10:18:53;3.53;;;2.80;;
62903;SDS011;49000;50.698;13.322;2023-05-07T10:21:21;3.13;;;2.90;;
62903;SDS011;49000;50.698;13.322;2023-05-07T10:23:49;3.13;;;2.60;;
62903;SDS011;49000;50.698;13.322;2023-05-07T10:26:21;2.70;;;2.50;;
62903;SDS011;49000;50.698;13.322;2023-05-07T10:28:49;4.30;;;3.03;;
62903;SDS011;49000;50.698;13.322;2023-05-07T10:31:36;2.80;;;2.60;;
62903;SDS011;49000;50.698;13.322;2023-05-07T10:34:23;2.80;;;2.50;;
62903;SDS011;49000;50.698;13.322;2023-05-07T10:36:52;2.60;;;2.40;;
62903;SDS011;49000;50.698;13.322;2023-05-07T10:39:20;2.40;;;2.20;;
62903;SDS011;49000;50.698;13.322;2023-05-07T10:41:46;2.72;;;2.53;;
62903;SDS011;49000;50.698;13.322;2023-05-07T10:44:24;2.63;;;2.42;;
62903;SDS011;49000;50.698;13.322;2023-05-07T10:47:07;2.85;;;2.65;;
62903;SDS011;49000;50.698;13.322;2023-05-07T10:49:34;3.20;;;2.90;;
62903;SDS011;49000;50.698;13.322;2023-05-07T10:54:39;3.33;;;2.97;;
62903;SDS011;49000;50.698;13.322;2023-05-07T10:59:55;5.63;;;2.70;;
62903;SDS011;49000;50.698;13.322;2023-05-07T11:02:21;2.80;;;2.60;;
62903;SDS011;49000;50.698;13.322;2023-05-07T11:05:01;3.15;;;2.92;;
62903;SDS011;49000;50.698;13.322;2023-05-07T11:07:54;3.75;;;2.65;;
62903;SDS011;49000;50.698;13.322;2023-05-07T11:10:21;2.83;;;2.60;;
62903;SDS011;49000;50.698;13.322;2023-05-07T11:12:50;3.45;;;3.13;;
62903;SDS011;49000;50.698;13.322;2023-05-07T11:18:01;2.72;;;2.53;;
62903;SDS011;49000;50.698;13.322;2023-05-07T11:20:48;2.92;;;2.60;;
62903;SDS011;49000;50.698;13.322;2023-05-07T11:26:00;3.35;;;2.50;;
62903;SDS011;49000;50.698;13.322;2023-05-07T11:28:31;2.78;;;2.58;;
62903;SDS011;49000;50.698;13.322;2023-05-07T11:31:02;3.15;;;2.85;;
62903;SDS011;49000;50.698;13.322;2023-05-07T11:33:28;3.10;;;2.80;;
62903;SDS011;49000;50.698;13.322;2023-05-07T11:35:55;2.83;;;2.40;;
62903;SDS011;49000;50.698;13.322;2023-05-07T11:38:21;2.63;;;2.42;;
62903;SDS011;49000;50.698;13.322;2023-05-07T11:40:55;2.90;;;2.70;;
62903;SDS011;49000;50.698;13.322;2023-05-07T11:43:21;2.97;;;2.67;;
62903;SDS011;49000;50.698;13.322;2023-05-07T11:45:47;3.22;;;2.92;;
62903;SDS011;49000;50.698;13.322;2023-05-07T11:48:13;2.75;;;2.55;;
62903;SDS011;49000;50.698;13.322;2023-05-07T11:53:27;2.78;;;2.50;;
62903;SDS011;49000;50.698;13.322;2023-05-07T11:55:54;3.17;;;2.97;;
62903;SDS011;49000;50.698;13.322;2023-05-07T11:58:21;3.20;;;2.90;;
62903;SDS011;49000;50.698;13.322;2023-05-07T12:00:50;2.72;;;2.53;;
62903;SDS011;49000;50.698;13.322;2023-05-07T12:03:16;3.63;;;3.33;;
62903;SDS011;49000;50.698;13.322;2023-05-07T12:05:43;3.10;;;2.90;;
62903;SDS011;49000;50.698;13.322;2023-05-07T12:08:13;3.40;;;3.15;;
62903;SDS011;49000;50.698;13.322;2023-05-07T12:10:43;3.95;;;2.92;;
62903;SDS011;49000;50.698;13.322;2023-05-07T12:15:42;3.47;;;3.25;;
62903;SDS011;49000;50.698;13.322;2023-05-07T12:18:08;3.03;;;2.45;;
62903;SDS011;49000;50.698;13.322;2023-05-07T12:20:34;4.05;;;3.10;;
62903;SDS011;49000;50.698;13.322;2023-05-07T12:23:00;3.30;;;3.00;;
62903;SDS011;49000;50.698;13.322;2023-05-07T12:25:26;3.28;;;3.08;;
62903;SDS011;49000;50.698;13.322;2023-05-07T12:27:54;3.45;;;3.15;;
62903;SDS011;49000;50.698;13.322;2023-05-07T12:30:21;3.00;;;2.80;;
62903;SDS011;49000;50.698;13.322;2023-05-07T12:32:46;3.35;;;3.10;;
62903;SDS011;49000;50.698;13.322;2023-05-07T12:35:12;3.65;;;3.35;;
62903;SDS011;49000;50.698;13.322;2023-05-07T12:37:37;3.30;;;3.00;;
62903;SDS011;49000;50.698;13.322;2023-05-07T12:40:06;2.90;;;2.70;;
62903;SDS011;49000;50.698;13.322;2023-05-07T12:42:37;3.45;;;3.15;;
62903;SDS011;49000;50.698;13.322;2023-05-07T12:45:08;6.97;;;3.08;;
62903;SDS011;49000;50.698;13.322;2023-05-07T12:47:37;3.00;;;2.80;;
62903;SDS011;49000;50.698;13.322;2023-05-07T12:50:05;3.00;;;2.80;;
62903;SDS011;49000;50.698;13.322;2023-05-07T12:52:31;3.08;;;2.75;;
62903;SDS011;49000;50.698;13.322;2023-05-07T12:54:57;2.35;;;2.22;;
62903;SDS011;49000;50.698;13.322;2023-05-07T12:57:30;2.97;;;2.75;;
62903;SDS011;49000;50.698;13.322;2023-05-07T13:00:02;3.58;;;3.25;;
62903;SDS011;49000;50.698;13.322;2023-05-07T13:02:33;3.40;;;3.10;;
62903;SDS011;49000;50.698;13.322;2023-05-07T13:05:02;3.38;;;3.17;;
62903;SDS011;49000;50.698;13.322;2023-05-07T13:07:27;3.10;;;2.88;;
62903;SDS011;49000;50.698;13.322;2023-05-07T13:09:53;2.90;;;2.70;;
62903;SDS011;49000;50.698;13.322;2023-05-07T13:12:18;3.38;;;3.08;;
62903;SDS011;49000;50.698;13.322;2023-05-07T13:14:44;3.28;;;3.03;;
62903;SDS011;49000;50.698;13.322;2023-05-07T13:17:09;3.60;;;3.30;;
62903;SDS011;49000;50.698;13.322;2023-05-07T13:19:35;3.08;;;2.88;;
62903;SDS011;49000;50.698;13.322;2023-05-07T13:22:02;3.58;;;3.28;;
62903;SDS011;49000;50.698;13.322;2023-05-07T13:24:28;3.28;;;3.08;;
62903;SDS011;49000;50.698;13.322;2023-05-07T13:26:53;3.97;;;3.67;;
62903;SDS011;49000;50.698;13.322;2023-05-07T13:29:19;4.07;;;3.20;;
62903;SDS011;49000;50.698;13.322;2023-05-07T13:31:44;3.75;;;3.45;;
62903;SDS011;49000;50.698;13.322;2023-05-07T13:34:10;3.40;;;3.10;;
62903;SDS011;49000;50.698;13.322;2023-05-07T13:36:35;4.20;;;3.80;;
62903;SDS011;49000;50.698;13.322;2023-05-07T13:39:04;3.80;;;3.50;;
62903;SDS011;49000;50.698;13.322;2023-05-07T13:41:31;3.97;;;3.58;;
62903;SDS011;49000;50.698;13.322;2023-05-07T13:43:56;3.58;;;3.28;;
62903;SDS011;49000;50.698;13.322;2023-05-07T13:46:21;3.88;;;3.58;;
62903;SDS011;49000;50.698;13.322;2023-05-07T13:48:47;3.50;;;2.90;;
62903;SDS011;49000;50.698;13.322;2023-05-07T13:51:12;3.47;;;3.17;;
62903;SDS011;49000;50.698;13.322;2023-05-07T13:53:38;3.70;;;3.40;;
62903;SDS011;49000;50.698;13.322;2023-05-07T13:56:04;3.58;;;3.28;;
62903;SDS011;49000;50.698;13.322;2023-05-07T13:58:30;3.80;;;3.50;;
62903;SDS011;49000;50.698;13.322;2023-05-07T14:00:56;3.65;;;3.40;;
62903;SDS011;49000;50.698;13.322;2023-05-07T14:03:22;4.30;;;4.00;;
62903;SDS011;49000;50.698;13.322;2023-05-07T14:05:47;3.65;;;3.35;;
62903;SDS011;49000;50.698;13.322;2023-05-07T14:08:13;4.28;;;3.75;;
62903;SDS011;49000;50.698;13.322;2023-05-07T14:10:39;4.28;;;3.88;;
62903;SDS011;49000;50.698;13.322;2023-05-07T14:13:05;3.85;;;3.55;;
62903;SDS011;49000;50.698;13.322;2023-05-07T14:15:31;4.10;;;3.33;;
62903;SDS011;49000;50.698;13.322;2023-05-07T14:17:57;3.88;;;3.58;;
62903;SDS011;49000;50.698;13.322;2023-05-07T14:20:24;3.92;;;3.55;;
62903;SDS011;49000;50.698;13.322;2023-05-07T14:22:49;3.70;;;3.40;;
62903;SDS011;49000;50.698;13.322;2023-05-07T14:25:15;4.45;;;4.10;;
62903;SDS011;49000;50.698;13.322;2023-05-07T14:27:41;3.92;;;3.60;;
62903;SDS011;49000;50.698;13.322;2023-05-07T14:30:06;3.75;;;3.45;;
62903;SDS011;49000;50.698;13.322;2023-05-07T14:32:33;3.50;;;3.20;;
62903;SDS011;49000;50.698;13.322;2023-05-07T14:34:58;3.30;;;3.00;;
62903;SDS011;49000;50.698;13.322;2023-05-07T14:37:24;4.15;;;3.55;;
62903;SDS011;49000;50.698;13.322;2023-05-07T14:39:50;3.78;;;3.47;;